createdAt,value
2023-05-20T00:00:17.433Z,60.28
2023-05-20T00:10:52.156Z,60.33
2023-05-20T00:21:13.441Z,60.14
2023-05-20T00:31:35.202Z,60.14
2023-05-20T00:42:00.699Z,59.85
2023-05-20T00:52:22.736Z,60.00
2023-05-20T01:02:44.268Z,59.98
2023-05-20T01:13:09.802Z,59.90
2023-05-20T01:23:39.359Z,59.94
2023-05-20T01:34:03.551Z,59.96
2023-05-20T01:44:25.976Z,59.90
2023-05-20T01:54:51.396Z,59.77
2023-05-20T02:05:13.392Z,59.88
2023-05-20T02:15:42.265Z,60.06
2023-05-20T02:26:03.604Z,59.78
2023-05-20T02:36:26.093Z,60.13
2023-05-20T02:46:48.304Z,60.08
2023-05-20T02:57:09.586Z,59.87
2023-05-20T03:07:34.531Z,60.00
2023-05-20T03:17:56.263Z,59.74
2023-05-20T03:28:17.590Z,59.50
2023-05-20T03:38:39.314Z,59.61
2023-05-20T03:49:02.313Z,59.60
2023-05-20T03:59:25.141Z,59.54
2023-05-20T04:09:46.934Z,59.63
2023-05-20T04:20:08.945Z,59.72
2023-05-20T04:30:33.727Z,59.72
2023-05-20T04:40:58.964Z,59.83
2023-05-20T04:51:20.947Z,59.91
2023-05-20T05:01:42.944Z,59.95
2023-05-20T05:12:04.930Z,60.03
2023-05-20T05:22:26.590Z,60.11
2023-05-20T05:32:48.775Z,59.98
2023-05-20T05:43:10.949Z,59.95
2023-05-20T05:53:33.135Z,60.07
2023-05-20T06:03:54.526Z,60.34
2023-05-20T06:14:17.040Z,60.43
2023-05-20T06:24:39.529Z,60.37
2023-05-20T06:35:01.048Z,60.12
2023-05-20T06:45:22.724Z,59.88
2023-05-20T06:55:48.280Z,59.58
2023-05-20T07:06:09.668Z,59.50
2023-05-20T07:16:32.654Z,59.26
2023-05-20T07:26:55.142Z,59.17
2023-05-20T07:37:17.220Z,59.40
2023-05-20T07:47:40.463Z,59.02
2023-05-20T07:58:03.860Z,58.86
2023-05-20T08:08:29.273Z,58.64
2023-05-20T08:18:59.045Z,58.36
2023-05-20T08:29:20.597Z,58.78
2023-05-20T08:39:42.073Z,58.42
2023-05-20T08:50:03.871Z,57.88
2023-05-20T09:00:29.002Z,57.98
2023-05-20T09:10:53.620Z,58.11
2023-05-20T09:21:15.063Z,58.15
2023-05-20T09:31:39.213Z,58.43
2023-05-20T09:42:07.682Z,58.56
2023-05-20T09:52:29.070Z,58.45
2023-05-20T10:02:53.455Z,58.33
2023-05-20T10:13:52.174Z,57.84
2023-05-20T10:24:13.801Z,57.73
2023-05-20T10:34:48.246Z,57.77
2023-05-20T10:45:10.879Z,57.44
2023-05-20T10:55:39.593Z,57.30
2023-05-20T11:06:00.789Z,57.18
2023-05-20T11:16:22.853Z,57.17
2023-05-20T11:26:45.338Z,57.04
2023-05-20T11:37:10.918Z,56.54
2023-05-20T11:47:32.995Z,56.88
2023-05-20T11:57:55.217Z,56.79
2023-05-20T12:08:17.063Z,56.65
2023-05-20T12:18:39.740Z,56.39
2023-05-20T12:29:01.653Z,56.85
2023-05-20T12:39:23.374Z,56.70
2023-05-20T12:49:45.153Z,56.95
2023-05-20T13:00:07.059Z,56.58
2023-05-20T13:10:29.583Z,56.73
2023-05-20T13:20:50.756Z,56.81
2023-05-20T13:31:12.557Z,56.92
2023-05-20T13:41:34.067Z,56.92
2023-05-20T13:51:55.503Z,56.81
2023-05-20T14:02:16.755Z,56.80
2023-05-20T14:12:38.471Z,56.53
2023-05-20T14:23:01.725Z,56.70
2023-05-20T14:33:23.065Z,56.63
2023-05-20T14:43:44.432Z,56.93
2023-05-20T14:54:06.709Z,56.47
2023-05-20T15:04:28.490Z,56.37
2023-05-20T15:14:49.935Z,54.66
2023-05-20T15:25:11.599Z,54.12
2023-05-20T15:35:32.936Z,54.16
2023-05-20T15:45:54.979Z,54.27
2023-05-20T15:56:16.915Z,53.70
2023-05-20T16:06:38.625Z,53.56
2023-05-20T16:17:00.364Z,53.17
2023-05-20T16:27:21.995Z,53.24
2023-05-20T16:37:44.629Z,53.61
2023-05-20T16:48:06.335Z,53.93
2023-05-20T16:58:27.934Z,54.54
2023-05-20T17:08:49.517Z,55.09
2023-05-20T17:19:11.126Z,55.72
2023-05-20T17:29:32.731Z,55.76
2023-05-20T17:39:54.256Z,56.52
2023-05-20T17:50:16.838Z,57.61
2023-05-20T18:00:42.408Z,57.33
2023-05-20T18:11:04.155Z,57.24
2023-05-20T18:21:27.357Z,56.94
2023-05-20T18:31:49.033Z,58.14
2023-05-20T18:42:10.200Z,58.07
2023-05-20T18:52:31.417Z,58.80
2023-05-20T19:02:52.963Z,58.90
2023-05-20T19:13:15.138Z,58.72
2023-05-20T19:23:37.333Z,58.35
2023-05-20T19:33:58.526Z,58.05
2023-05-20T19:44:20.728Z,58.19
2023-05-20T19:54:44.351Z,57.89
2023-05-20T20:05:07.701Z,57.95
2023-05-20T20:15:30.727Z,58.34
2023-05-20T20:25:52.518Z,58.21
2023-05-20T20:36:15.150Z,58.56
2023-05-20T20:46:37.876Z,58.43
2023-05-20T20:57:02.881Z,58.68
2023-05-20T21:07:25.988Z,58.82
2023-05-20T21:17:48.247Z,59.18
2023-05-20T21:28:10.297Z,58.29
2023-05-20T21:38:31.947Z,57.62
2023-05-20T21:48:53.271Z,57.55
2023-05-20T21:59:15.611Z,57.26
2023-05-20T22:09:37.901Z,57.74
2023-05-20T22:20:00.572Z,57.12
2023-05-20T22:30:22.109Z,57.69
2023-05-20T22:40:43.734Z,57.50
2023-05-20T22:51:06.087Z,57.67
2023-05-20T23:01:27.279Z,57.50
2023-05-20T23:11:48.876Z,57.19
2023-05-20T23:22:10.275Z,57.56
2023-05-20T23:32:32.052Z,57.42
2023-05-20T23:42:53.369Z,57.81
2023-05-20T23:53:14.433Z,57.96
